^^
Grace C. Lehan Memorial Weather Station Historical Data
Daily Summary for May 20, 2021 Units:  Metric    English   Both
Daily Weekly Monthly Yearly
  High: Low: Average:
Temperature: 24.9 °C 12.1 °C 18.8 °C
Dew Point: 17.1 °C 11.1 °C 14.2 °C
Humidity: 95.5% 58.3% 76%
Wind Speed: 2.4km/h 0km/h 0.2km/h
Wind Gust: 14.5km/h - -
Wind- - South
Pressure: 1027.7 hPa 1022.9 hPa -
Precipitation: 0 mm    
 
 
Tabular Data for May 20, 2021
Time Temperature Dew Point Pressure Wind Wind Speed Wind Gust Humidity Rainfall Rate (Hourly) solar
00:04 14.8 °C 12.9 °C 1023.2 hPa Calm     88% 0 mm 0 W/m2
00:09 14.8 °C 12.9 °C 1023.2 hPa Calm     88% 0 mm 0 W/m2
00:14 14.8 °C 12.8 °C 1023.2 hPa Calm     88% 0 mm 0 W/m2
00:19 14.8 °C 12.8 °C 1023.2 hPa Calm     88% 0 mm 0 W/m2
01:00 14.4 °C 12.7 °C 1022.9 hPa Calm     89% 0 mm 0 W/m2
01:30 14.1 °C 12.4 °C 1023.2 hPa Calm     90% 0 mm 0 W/m2
02:00 13.8 °C 12.6 °C 1023.2 hPa Calm     92% 0 mm 0 W/m2
02:30 13.4 °C 12.2 °C 1023.6 hPa Calm     92% 0 mm 0 W/m2
03:00 13.3 °C 12 °C 1023.9 hPa Calm     92% 0 mm 0 W/m2
03:30 13.1 °C 12 °C 1023.9 hPa Calm     93% 0 mm 0 W/m2
04:04 12.9 °C 11.8 °C 1023.9 hPa Calm     93% 0 mm 0 W/m2
04:09 12.9 °C 11.8 °C 1023.9 hPa Calm     93% 0 mm 0 W/m2
04:14 12.9 °C 11.8 °C 1023.9 hPa Calm     93% 0 mm 0 W/m2
04:19 12.8 °C 11.7 °C 1024.3 hPa Calm     93% 0 mm 0 W/m2
04:24 12.8 °C 11.7 °C 1024.3 hPa Calm     93% 0 mm 0 W/m2
04:29 12.8 °C 11.9 °C 1024.3 hPa Calm     94% 0 mm 0 W/m2
04:34 12.8 °C 11.9 °C 1024.3 hPa Calm     94% 0 mm 0 W/m2
04:39 12.8 °C 11.9 °C 1024.3 hPa Calm     94% 0 mm 0 W/m2
04:44 12.8 °C 11.7 °C 1024.3 hPa Calm     93.3% 0 mm 0 W/m2
04:49 12.7 °C 11.7 °C 1024.3 hPa Calm     93.7% 0 mm 0 W/m2
04:54 12.7 °C 11.7 °C 1024.3 hPa Calm     94% 0 mm 0 W/m2
04:59 12.6 °C 11.7 °C 1024.3 hPa Calm     94% 0 mm 0 W/m2
05:04 12.6 °C 11.6 °C 1024.3 hPa Calm     94% 0 mm 0 W/m2
05:09 12.5 °C 11.4 °C 1024.6 hPa Calm     93.1% 0 mm 0 W/m2
05:14 12.4 °C 11.3 °C 1024.6 hPa Calm     93% 0 mm 0 W/m2
05:19 12.4 °C 11.3 °C 1024.6 hPa Calm     93% 0 mm 0 W/m2
05:24 12.3 °C 11.3 °C 1024.6 hPa Calm     93.5% 0 mm 0 W/m2
05:29 12.3 °C 11.4 °C 1024.6 hPa Calm     94% 0 mm 0 W/m2
05:34 12.3 °C 11.4 °C 1024.6 hPa Calm     94% 0 mm 0 W/m2
05:39 12.3 °C 11.4 °C 1024.6 hPa Calm     94% 0 mm 0 W/m2
05:44 12.3 °C 11.4 °C 1024.6 hPa Calm     94% 0 mm 0 W/m2
05:49 12.3 °C 11.4 °C 1024.6 hPa Calm     94% 0 mm 0 W/m2
05:54 12.3 °C 11.4 °C 1024.9 hPa Calm     94% 0 mm 0 W/m2
05:59 12.3 °C 11.4 °C 1024.6 hPa Calm     94% 0 mm 0 W/m2
06:04 12.3 °C 11.3 °C 1024.9 hPa Calm     94% 0 mm 0 W/m2
06:09 12.3 °C 11.3 °C 1024.9 hPa Calm     94% 0 mm 0 W/m2
06:14 12.3 °C 11.3 °C 1024.9 hPa Calm     94% 0 mm 0 W/m2
06:19 12.3 °C 11.3 °C 1024.9 hPa Calm     94% 0 mm 0 W/m2
06:24 12.2 °C 11.3 °C 1025.3 hPa Calm     94% 0 mm 0 W/m2
06:29 12.2 °C 11.2 °C 1025.3 hPa Calm     94% 0 mm 0 W/m2
06:34 12.2 °C 11.2 °C 1025.3 hPa Calm     94% 0 mm 0 W/m2
06:39 12.2 °C 11.2 °C 1025.6 hPa Calm     94% 0 mm 0 W/m2
06:44 12.1 °C 11.2 °C 1025.6 hPa Calm     94% 0 mm 5 W/m2
06:49 12.1 °C 11.2 °C 1025.6 hPa Calm     94% 0 mm 7 W/m2
06:54 12.1 °C 11.2 °C 1026 hPa Calm     94% 0 mm 7 W/m2
06:59 12.1 °C 11.2 °C 1025.6 hPa Calm     94% 0 mm 9 W/m2
07:04 12.1 °C 11.1 °C 1026 hPa Calm     94% 0 mm 11 W/m2
07:09 12.1 °C 11.1 °C 1026 hPa Calm     94% 0 mm 11 W/m2
07:14 12.1 °C 11.1 °C 1026 hPa Calm     94% 0 mm 12 W/m2
07:19 12.1 °C 11.1 °C 1026 hPa Calm     94% 0 mm 23 W/m2
07:24 12.1 °C 11.1 °C 1026.3 hPa Calm     94% 0 mm 42 W/m2
07:29 12.1 °C 11.2 °C 1026 hPa Calm     94.6% 0 mm 51 W/m2
07:34 12.2 °C 11.4 °C 1026.3 hPa Calm     95% 0 mm 49 W/m2
07:39 12.3 °C 11.6 °C 1026.3 hPa Calm     95% 0 mm 56 W/m2
07:44 12.6 °C 11.8 °C 1026.3 hPa Calm     95% 0 mm 62 W/m2
07:49 12.8 °C 12.1 °C 1026.3 hPa Calm     95.1% 0 mm 65 W/m2
07:54 13.1 °C 12.4 °C 1026.3 hPa Calm     95.5% 0 mm 42 W/m2
07:59 13.2 °C 12.4 °C 1026.3 hPa Calm     95% 0 mm 49 W/m2
08:09 13.4 °C 12.7 °C 1026.3 hPa Calm     95% 0 mm 28 W/m2
08:13 13.5 °C 12.7 °C 1026.3 hPa ENE 0.2 km/h 3.2 km/h 94.9% 0 mm 33 W/m2
08:30 14.1 °C 13.1 °C 1026.3 hPa Calm   4.8 km/h 94% 0 mm 55 W/m2
09:00 15.3 °C 13.9 °C 1026.6 hPa Calm   3.2 km/h 91% 0 mm 158 W/m2
09:30 17.6 °C 14.4 °C 1027 hPa Calm   4.8 km/h 82% 0 mm 321 W/m2
10:00 19.4 °C 14.9 °C 1027.3 hPa Calm   4.8 km/h 75% 0 mm 493 W/m2
10:30 21.7 °C 16.6 °C 1027.3 hPa Calm   6.4 km/h 73% 0 mm 626 W/m2
11:00 22.6 °C 16.8 °C 1027.3 hPa Calm   3.2 km/h 70% 0 mm 691 W/m2
11:30 23.8 °C 17.1 °C 1027 hPa Calm   3.2 km/h 66% 0 mm 719 W/m2
12:04 22.8 °C 16.4 °C 1027 hPa Calm     67.1% 0 mm 95 W/m2
12:09 22.8 °C 16.7 °C 1027 hPa Calm     68.7% 0 mm 134 W/m2
12:14 22.8 °C 16.8 °C 1027 hPa Calm     68.8% 0 mm 130 W/m2
12:19 22.9 °C 17.1 °C 1027 hPa ENE 0.8 km/h 8 km/h 70% 0 mm 171 W/m2
12:24 23.1 °C 17 °C 1027 hPa ENE 0.3 km/h 8 km/h 68.9% 0 mm 450 W/m2
12:29 23.2 °C 16.9 °C 1027 hPa Calm   8 km/h 67.7% 0 mm 450 W/m2
12:34 23.2 °C 17.1 °C 1027 hPa Calm   8 km/h 68.3% 0 mm 283 W/m2
12:39 23.3 °C 17.1 °C 1027 hPa ENE 0.3 km/h 6.4 km/h 68.1% 0 mm 309 W/m2
12:44 23.3 °C 16.8 °C 1027 hPa Calm   6.4 km/h 67% 0 mm 195 W/m2
12:49 23.3 °C 16.6 °C 1027 hPa ENE 0.2 km/h 6.4 km/h 65.8% 0 mm 192 W/m2
12:54 23.2 °C 16.4 °C 1027 hPa Calm   6.4 km/h 65.3% 0 mm 410 W/m2
12:59 23.3 °C 16.5 °C 1027 hPa East 0.3 km/h 6.4 km/h 65.7% 0 mm 410 W/m2
13:04 23.3 °C 16.6 °C 1027 hPa Calm   6.4 km/h 65.9% 0 mm 733 W/m2
13:09 23.4 °C 16.7 °C 1027 hPa ENE 1 km/h 4.8 km/h 66% 0 mm 659 W/m2
13:14 23.6 °C 16.5 °C 1026.6 hPa ENE 0.3 km/h 6.4 km/h 64.6% 0 mm 327 W/m2
13:19 23.6 °C 16.2 °C 1026.6 hPa Calm   6.4 km/h 63.3% 0 mm 116 W/m2
13:24 23.5 °C 16.2 °C 1026.6 hPa Calm   6.4 km/h 63.5% 0 mm 97 W/m2
13:29 23.4 °C 16.6 °C 1026.6 hPa ENE 0.6 km/h 6.4 km/h 65.3% 0 mm 130 W/m2
13:34 23.4 °C 16.5 °C 1026.6 hPa ENE 1 km/h 6.4 km/h 65.1% 0 mm 207 W/m2
13:39 23.4 °C 16 °C 1026.6 hPa Calm   6.4 km/h 62.9% 0 mm 207 W/m2
13:44 23.5 °C 16.3 °C 1026.6 hPa ENE 1.1 km/h 9.7 km/h 63.9% 0 mm 142 W/m2
13:49 23.7 °C 15.9 °C 1026.6 hPa WSW 2.4 km/h 14.5 km/h 61.8% 0 mm 113 W/m2
13:54 23.9 °C 15.8 °C 1026.6 hPa SW 0.2 km/h 14.5 km/h 60.7% 0 mm 102 W/m2
13:59 24 °C 15.7 °C 1026.6 hPa Calm   14.5 km/h 59.8% 0 mm 97 W/m2
14:04 24.1 °C 16 °C 1026.6 hPa SSW 0.8 km/h 14.5 km/h 60.6% 0 mm 107 W/m2
14:09 24.3 °C 16.2 °C 1026.6 hPa South 1 km/h 6.4 km/h 60.5% 0 mm 118 W/m2
14:14 24.3 °C 16.1 °C 1026.3 hPa SSE 0.6 km/h 6.4 km/h 60.1% 0 mm 113 W/m2
14:19 24.4 °C 15.7 °C 1026.3 hPa SE 1.3 km/h 8 km/h 58.3% 0 mm 107 W/m2
14:24 24.3 °C 15.7 °C 1026.3 hPa Calm   8 km/h 58.4% 0 mm 77 W/m2
14:29 24.2 °C 15.7 °C 1026.3 hPa Calm   8 km/h 59.4% 0 mm 105 W/m2
14:34 24 °C 16.1 °C 1026.3 hPa SE 0.2 km/h 8 km/h 61% 0 mm 123 W/m2
14:39 24 °C 16.3 °C 1026.3 hPa SW 0.5 km/h 8 km/h 62.1% 0 mm 142 W/m2
14:44 24.2 °C 15.9 °C 1026.3 hPa SSE 0.8 km/h 8 km/h 60.1% 0 mm 223 W/m2
14:49 24.2 °C 15.8 °C 1026.3 hPa SE 0.5 km/h 8 km/h 59.5% 0 mm 121 W/m2
14:54 24.2 °C 16.2 °C 1026.3 hPa Calm   8 km/h 61% 0 mm 93 W/m2
14:59 24 °C 15.9 °C 1026.3 hPa Calm   8 km/h 60.8% 0 mm 146 W/m2
15:04 23.9 °C 16.1 °C 1026.3 hPa SE 0.2 km/h 8 km/h 61.7% 0 mm 146 W/m2
15:09 23.9 °C 16.3 °C 1026 hPa SE 0.8 km/h 4.8 km/h 62.2% 0 mm 374 W/m2
15:14 24.1 °C 16.2 °C 1026 hPa South 1.6 km/h 6.4 km/h 61.4% 0 mm 267 W/m2
15:19 24.3 °C 15.8 °C 1026 hPa SSW 0.8 km/h 6.4 km/h 58.8% 0 mm 480 W/m2
15:24 24.5 °C 15.9 °C 1026.3 hPa SW 0.5 km/h 6.4 km/h 58.8% 0 mm 480 W/m2
15:29 24.7 °C 16.5 °C 1026 hPa SW 0.5 km/h 6.4 km/h 60.3% 0 mm 642 W/m2
15:34 24.8 °C 16.6 °C 1026 hPa SW 2.3 km/h 9.7 km/h 60.2% 0 mm 642 W/m2
15:39 24.9 °C 16.5 °C 1026.3 hPa SW 0.2 km/h 9.7 km/h 59.5% 0 mm 90 W/m2
15:44 24.8 °C 16.3 °C 1026 hPa WSW 0.6 km/h 9.7 km/h 59.3% 0 mm 325 W/m2
15:49 24.6 °C 16.3 °C 1026.3 hPa Calm   9.7 km/h 60.3% 0 mm 79 W/m2
15:54 24.3 °C 16.4 °C 1026.3 hPa WSW 0.2 km/h 9.7 km/h 61.4% 0 mm 74 W/m2
15:59 24 °C 16 °C 1026 hPa WSW 0.3 km/h 9.7 km/h 60.8% 0 mm 56 W/m2
16:09 23.5 °C 16.1 °C 1026 hPa WSW 1 km/h 6.4 km/h 63% 0 mm 56 W/m2
16:14 23.5 °C 16.1 °C 1026 hPa WSW 1.1 km/h 8 km/h 63.2% 0 mm 51 W/m2
16:19 23.6 °C 15.8 °C 1026 hPa WSW 0.3 km/h 8 km/h 61.8% 0 mm 39 W/m2
16:24 23.6 °C 15.6 °C 1026 hPa WSW 0.2 km/h 8 km/h 61% 0 mm 33 W/m2
16:29 23.4 °C 15.5 °C 1026 hPa WSW 0.2 km/h 8 km/h 61.1% 0 mm 32 W/m2
16:34 23.3 °C 15.6 °C 1026 hPa WSW 0.2 km/h 8 km/h 62% 0 mm 26 W/m2
16:39 23.1 °C 15.7 °C 1026 hPa WSW 0.2 km/h 1.6 km/h 62.9% 0 mm 26 W/m2
16:44 23 °C 15.6 °C 1026 hPa WSW 0.5 km/h 3.2 km/h 63% 0 mm 32 W/m2
16:49 22.9 °C 15.6 °C 1026 hPa Calm   3.2 km/h 63% 0 mm 21 W/m2
16:54 22.9 °C 15.3 °C 1026.3 hPa Calm   3.2 km/h 62.3% 0 mm 25 W/m2
16:59 22.8 °C 15.6 °C 1026 hPa Calm   3.2 km/h 63.7% 0 mm 32 W/m2
17:04 22.8 °C 15.8 °C 1026.3 hPa Calm   3.2 km/h 64.7% 0 mm 32 W/m2
17:09 22.8 °C 15.8 °C 1026.3 hPa SSW 0.2 km/h 4.8 km/h 64.9% 0 mm 28 W/m2
17:14 22.8 °C 15.7 °C 1026.3 hPa SSW 0.5 km/h 8 km/h 64.1% 0 mm 26 W/m2
17:19 22.8 °C 15.6 °C 1026.3 hPa Calm   8 km/h 63.7% 0 mm 26 W/m2
17:24 22.8 °C 15.6 °C 1026.3 hPa SSW 0.2 km/h 8 km/h 63.8% 0 mm 23 W/m2
17:29 22.7 °C 15.2 °C 1026.3 hPa SSW 0.5 km/h 8 km/h 62.3% 0 mm 21 W/m2
17:34 22.6 °C 15.1 °C 1026.3 hPa Calm   8 km/h 62.3% 0 mm 21 W/m2
17:39 22.5 °C 14.9 °C 1026.3 hPa Calm     62.3% 0 mm 21 W/m2
17:44 22.4 °C 14.9 °C 1026.3 hPa Calm     62.5% 0 mm 19 W/m2
17:49 22.3 °C 14.9 °C 1026.3 hPa Calm   1.6 km/h 63% 0 mm 19 W/m2
17:54 22.2 °C 14.9 °C 1026.3 hPa Calm   1.6 km/h 63.2% 0 mm 18 W/m2
17:59 22.2 °C 15 °C 1026.3 hPa SW 0.5 km/h 3.2 km/h 63.9% 0 mm 18 W/m2
18:04 22.1 °C 14.7 °C 1026.3 hPa South 0.2 km/h 3.2 km/h 63% 0 mm 16 W/m2
18:09 21.9 °C 14.7 °C 1026.3 hPa South 0.2 km/h 3.2 km/h 63.5% 0 mm 12 W/m2
18:14 21.8 °C 14.6 °C 1026.3 hPa Calm   3.2 km/h 63.6% 0 mm 12 W/m2
18:19 21.7 °C 14.6 °C 1026.3 hPa South 0.5 km/h 4.8 km/h 64% 0 mm 11 W/m2
18:24 21.6 °C 14.6 °C 1026.6 hPa South 0.3 km/h 4.8 km/h 64.5% 0 mm 9 W/m2
18:29 21.4 °C 14.6 °C 1026.6 hPa Calm   4.8 km/h 65% 0 mm 5 W/m2
18:34 21.3 °C 14.7 °C 1026.6 hPa Calm   4.8 km/h 65.6% 0 mm 5 W/m2
18:39 21.2 °C 14.8 °C 1026.6 hPa Calm     66.6% 0 mm 0 W/m2
18:44 21.1 °C 14.7 °C 1026.6 hPa South 0.3 km/h 1.6 km/h 66.6% 0 mm 0 W/m2
18:49 21 °C 14.6 °C 1026.6 hPa Calm   1.6 km/h 66.9% 0 mm 0 W/m2
18:54 20.8 °C 14.5 °C 1026.6 hPa Calm   1.6 km/h 67% 0 mm 0 W/m2
18:59 20.7 °C 14.5 °C 1026.6 hPa Calm   1.6 km/h 67.7% 0 mm 0 W/m2
19:04 20.6 °C 14.4 °C 1027 hPa Calm   1.6 km/h 68% 0 mm 0 W/m2
19:09 20.4 °C 14.3 °C 1027 hPa Calm     68% 0 mm 0 W/m2
19:14 20.3 °C 14.3 °C 1027 hPa Calm     68.6% 0 mm 0 W/m2
19:19 20.2 °C 14.3 °C 1027 hPa Calm     69% 0 mm 0 W/m2
19:24 20.1 °C 14.3 °C 1027 hPa Calm     69.6% 0 mm 0 W/m2
19:29 19.9 °C 14.3 °C 1027 hPa Calm     70% 0 mm 0 W/m2
19:34 19.8 °C 14.3 °C 1027 hPa Calm     70.7% 0 mm 0 W/m2
19:39 19.7 °C 14.3 °C 1027 hPa Calm     71.2% 0 mm 0 W/m2
19:44 19.6 °C 14.3 °C 1027 hPa Calm     72% 0 mm 0 W/m2
19:49 19.4 °C 14.3 °C 1027 hPa Calm     72.3% 0 mm 0 W/m2
19:54 19.3 °C 14.3 °C 1027.3 hPa Calm     73% 0 mm 0 W/m2
19:59 19.2 °C 14.4 °C 1027.3 hPa Calm     73.8% 0 mm 0 W/m2
20:00 19.2 °C 14.6 °C 1027.3 hPa Calm     75% 0 mm 0 W/m2
20:09 19 °C 14.4 °C 1027.3 hPa Calm     74.8% 0 mm 0 W/m2
20:14 18.9 °C 14.4 °C 1027.3 hPa Calm     75% 0 mm 0 W/m2
20:19 18.8 °C 14.3 °C 1027.3 hPa Calm     75% 0 mm 0 W/m2
20:24 18.8 °C 14.4 °C 1027.3 hPa Calm     76% 0 mm 0 W/m2
20:29 18.7 °C 14.4 °C 1027.3 hPa Calm     76% 0 mm 0 W/m2
20:34 18.6 °C 14.3 °C 1027.3 hPa Calm     76% 0 mm 0 W/m2
20:39 18.5 °C 14.3 °C 1027.7 hPa Calm     76.8% 0 mm 0 W/m2
20:44 18.4 °C 14.3 °C 1027.7 hPa Calm     77% 0 mm 0 W/m2
20:49 18.3 °C 14.3 °C 1027.7 hPa Calm     77.5% 0 mm 0 W/m2
20:53 18.3 °C 14.4 °C 1027.7 hPa Calm     78% 0 mm 0 W/m2
20:59 18.3 °C 14.4 °C 1027.7 hPa Calm     78% 0 mm 0 W/m2
21:04 18.3 °C 14.4 °C 1027.7 hPa Calm     78% 0 mm 0 W/m2
21:09 18.2 °C 14.3 °C 1027.7 hPa Calm     78% 0 mm 0 W/m2
21:14 18.2 °C 14.3 °C 1027.7 hPa Calm     78% 0 mm 0 W/m2
21:19 18.2 °C 14.3 °C 1027.7 hPa Calm     78% 0 mm 0 W/m2
21:24 18.2 °C 14.3 °C 1027.7 hPa Calm     78.5% 0 mm 0 W/m2
21:29 18.1 °C 14.3 °C 1027.7 hPa Calm     78.9% 0 mm 0 W/m2
21:34 18 °C 14.3 °C 1027.7 hPa Calm     79% 0 mm 0 W/m2
21:39 17.9 °C 14.2 °C 1027.7 hPa Calm     79% 0 mm 0 W/m2
21:44 17.7 °C 14.1 °C 1027.7 hPa Calm     79% 0 mm 0 W/m2
21:48 17.6 °C 13.9 °C 1027.7 hPa Calm     79% 0 mm 0 W/m2
Hartford County Weather
Compliments of Weather Underground - 2 mb